Time;durP1;ratioP1;P1;durP2;ratioP2;P2;SDS_P1;SDS_P2;PMS_P1;PMS_P2;Temp;Humidity;BMP_temperature;BMP_pressure;BME280_temperature;BME280_humidity;BME280_pressure;Samples;Min_cycle;Max_cycle;Signal;HPM_P1;HPM_P2
2024/01/10 00:01:26;;;;;;;12.52;6.45;;;-3.30;99.90;;;;;;4865472;29;20049;-76
2024/01/10 00:03:55;;;;;;;9.50;5.70;;;-3.30;99.90;;;;;;4869518;29;20061;-77
2024/01/10 00:06:21;;;;;;;11.57;6.43;;;-3.30;99.90;;;;;;4878599;29;20104;-77
2024/01/10 00:08:46;;;;;;;11.98;6.72;;;-3.30;99.90;;;;;;4869211;29;20457;-77
2024/01/10 00:11:12;;;;;;;11.93;6.38;;;-3.30;99.90;;;;;;4849040;29;20045;-77
2024/01/10 00:13:38;;;;;;;10.75;6.30;;;-3.30;99.90;;;;;;4862617;29;20048;-77
2024/01/10 00:16:04;;;;;;;12.07;5.72;;;-3.30;99.90;;;;;;4874868;29;20049;-77
2024/01/10 00:18:30;;;;;;;12.18;5.78;;;-3.30;99.90;;;;;;4866906;29;20512;-76
2024/01/10 00:20:55;;;;;;;12.45;5.40;;;-3.30;99.90;;;;;;4868273;29;20053;-76
2024/01/10 00:23:22;;;;;;;9.85;5.80;;;-3.30;99.90;;;;;;4859259;29;20053;-76
2024/01/10 00:25:48;;;;;;;9.90;5.10;;;-3.40;99.90;;;;;;4881036;29;20501;-76
2024/01/10 00:28:16;;;;;;;11.40;5.30;;;-3.40;99.90;;;;;;4850895;29;20065;-76
2024/01/10 00:30:42;;;;;;;11.18;5.35;;;-3.40;99.90;;;;;;4881244;29;20084;-77
2024/01/10 00:33:07;;;;;;;11.20;5.53;;;-3.40;99.90;;;;;;4871247;29;20486;-76
2024/01/10 00:35:33;;;;;;;9.50;5.35;;;-3.40;99.90;;;;;;4858793;29;20056;-76
2024/01/10 00:37:59;;;;;;;10.32;5.65;;;-3.40;99.90;;;;;;4858139;29;20516;-76
2024/01/10 00:40:25;;;;;;;8.32;5.25;;;-3.40;99.90;;;;;;4875986;29;20045;-77
2024/01/10 00:42:50;;;;;;;9.02;5.22;;;-3.40;99.90;;;;;;4843551;29;20060;-76
2024/01/10 00:45:16;;;;;;;8.77;4.68;;;-3.40;99.90;;;;;;4865012;29;20053;-77
2024/01/10 00:47:42;;;;;;;13.13;5.60;;;-3.40;99.90;;;;;;4855390;29;20456;-76
2024/01/10 00:50:08;;;;;;;8.40;5.10;;;-3.50;99.90;;;;;;4866055;29;20051;-76
2024/01/10 00:52:34;;;;;;;10.33;5.10;;;-3.50;99.90;;;;;;4879112;29;20411;-76
2024/01/10 00:55:00;;;;;;;10.38;4.82;;;-3.50;99.90;;;;;;4849616;29;20053;-76
2024/01/10 00:57:25;;;;;;;12.30;5.32;;;-3.50;99.90;;;;;;4855571;29;20046;-76
2024/01/10 00:59:51;;;;;;;9.88;5.10;;;-3.50;99.90;;;;;;4868607;29;20263;-76
2024/01/10 01:02:17;;;;;;;8.75;4.93;;;-3.50;99.90;;;;;;4883519;29;20052;-76
2024/01/10 01:04:42;;;;;;;9.73;5.40;;;-3.50;99.90;;;;;;4867875;29;20105;-77
2024/01/10 01:07:08;;;;;;;8.95;5.13;;;-3.50;99.90;;;;;;4888125;29;20063;-76
2024/01/10 01:09:34;;;;;;;10.65;5.25;;;-3.50;99.90;;;;;;4869094;29;20044;-77
2024/01/10 01:12:00;;;;;;;11.43;5.35;;;-3.50;99.90;;;;;;4883083;29;20040;-76
2024/01/10 01:14:26;;;;;;;8.98;4.93;;;-3.50;99.90;;;;;;4901118;29;20140;-76
2024/01/10 01:16:52;;;;;;;10.82;5.30;;;-3.50;99.90;;;;;;4887204;29;20385;-77
2024/01/10 01:19:17;;;;;;;9.27;4.70;;;-3.60;99.90;;;;;;4868491;29;20060;-76
2024/01/10 01:21:43;;;;;;;9.77;4.78;;;-3.60;99.90;;;;;;4870481;29;20055;-77
2024/01/10 01:24:09;;;;;;;9.20;5.22;;;-3.50;99.90;;;;;;4872256;29;20553;-76
2024/01/10 01:26:35;;;;;;;9.82;4.78;;;-3.60;99.90;;;;;;4858748;29;20120;-76
2024/01/10 01:29:00;;;;;;;11.90;5.15;;;-3.60;99.90;;;;;;4852355;29;20060;-76
2024/01/10 01:31:26;;;;;;;9.35;4.75;;;-3.60;99.90;;;;;;4904269;29;20044;-76
2024/01/10 01:33:52;;;;;;;8.32;4.97;;;-3.60;99.90;;;;;;4857310;29;20082;-76
2024/01/10 01:36:17;;;;;;;9.00;5.35;;;-3.60;99.90;;;;;;4881172;29;20072;-77
2024/01/10 01:38:44;;;;;;;9.45;5.03;;;-3.60;99.90;;;;;;4864230;29;20083;-77
2024/01/10 01:41:09;;;;;;;8.25;4.97;;;-3.60;99.90;;;;;;4865181;29;20042;-77
2024/01/10 01:43:35;;;;;;;9.30;4.80;;;-3.60;99.90;;;;;;4892773;29;20398;-76
2024/01/10 01:46:02;;;;;;;11.50;5.10;;;-3.60;99.90;;;;;;4853562;29;20060;-76
2024/01/10 01:48:28;;;;;;;10.50;4.90;;;-3.60;99.90;;;;;;4864975;29;20754;-76
2024/01/10 01:51:01;;;;;;;9.32;5.40;;;-3.60;99.90;;;;;;4856941;29;20313;-76
2024/01/10 01:53:28;;;;;;;10.63;5.45;;;-3.60;99.90;;;;;;4862790;29;20508;-76
2024/01/10 01:55:54;;;;;;;;;;;-3.60;99.90;;;;;;4896112;29;20132;-77
2024/01/10 01:58:22;;;;;;;9.02;4.85;;;-3.70;99.90;;;;;;4874338;29;20003;-76
2024/01/10 02:00:48;;;;;;;9.00;5.28;;;-3.70;99.90;;;;;;4888121;29;20531;-76
2024/01/10 02:03:13;;;;;;;10.23;5.05;;;-3.70;99.90;;;;;;4859380;29;20054;-77
2024/01/10 02:05:39;;;;;;;8.75;5.13;;;-3.70;99.90;;;;;;4885633;29;20049;-76
2024/01/10 02:08:05;;;;;;;10.02;5.25;;;-3.70;99.90;;;;;;4865918;29;20038;-77
2024/01/10 02:10:31;;;;;;;8.25;5.45;;;-3.70;99.90;;;;;;4868479;29;20060;-76
2024/01/10 02:12:57;;;;;;;8.40;4.70;;;-3.70;99.90;;;;;;4869881;29;20105;-76
2024/01/10 02:15:23;;;;;;;11.75;5.65;;;-3.80;99.90;;;;;;4880087;29;20029;-76
2024/01/10 02:17:49;;;;;;;8.88;5.22;;;-3.70;99.90;;;;;;4873989;29;20144;-77
2024/01/10 02:20:20;;;;;;;11.05;4.97;;;-3.80;99.90;;;;;;4857847;29;20094;-76
2024/01/10 02:22:46;;;;;;;8.55;4.97;;;-3.80;99.90;;;;;;4861424;29;20127;-77
2024/01/10 02:25:13;;;;;;;11.00;4.70;;;-3.80;99.90;;;;;;4865047;29;20135;-76
2024/01/10 02:27:40;;;;;;;10.10;5.20;;;-3.80;99.90;;;;;;4898737;29;20515;-76
2024/01/10 02:30:08;;;;;;;9.45;5.90;;;-3.80;99.90;;;;;;4860411;29;20041;-76
2024/01/10 02:32:34;;;;;;;9.98;5.20;;;-3.80;99.90;;;;;;4855480;29;20063;-76
2024/01/10 02:35:00;;;;;;;9.50;5.37;;;-3.80;99.90;;;;;;4888179;29;20040;-76
2024/01/10 02:37:27;;;;;;;10.10;5.00;;;-3.80;99.90;;;;;;4879335;29;20073;-76
2024/01/10 02:39:52;;;;;;;8.40;5.07;;;-3.90;99.90;;;;;;4879238;29;20072;-76
2024/01/10 02:42:18;;;;;;;11.07;5.38;;;-3.80;99.90;;;;;;4863426;29;20179;-76
2024/01/10 02:44:44;;;;;;;11.95;6.13;;;-3.80;99.90;;;;;;4869058;29;20120;-76
2024/01/10 02:47:12;;;;;;;9.45;4.57;;;-3.90;99.90;;;;;;4873452;29;20053;-76
2024/01/10 02:49:39;;;;;;;10.77;5.18;;;-3.90;99.90;;;;;;4862355;29;20049;-76
2024/01/10 02:52:05;;;;;;;9.77;4.70;;;-3.90;99.90;;;;;;4892246;29;20061;-76
2024/01/10 02:54:31;;;;;;;12.37;5.73;;;-3.90;99.90;;;;;;4858007;29;20049;-76
2024/01/10 02:56:56;;;;;;;8.93;4.93;;;-3.90;99.90;;;;;;4885715;29;20041;-77
2024/01/10 02:59:22;;;;;;;9.75;4.68;;;-3.90;99.90;;;;;;4867511;29;21829;-74
2024/01/10 03:01:48;;;;;;;9.02;5.03;;;-4.00;99.90;;;;;;4869844;29;20048;-76
2024/01/10 03:04:14;;;;;;;9.50;5.20;;;-4.00;99.90;;;;;;4883584;29;20052;-76
2024/01/10 03:06:39;;;;;;;10.07;5.43;;;-4.00;99.90;;;;;;4860372;29;20045;-76
2024/01/10 03:09:05;;;;;;;10.57;4.85;;;-4.00;99.90;;;;;;4893414;29;20052;-76
2024/01/10 03:11:31;;;;;;;9.50;4.93;;;-4.00;99.90;;;;;;4878297;29;20051;-77
2024/01/10 03:14:07;;;;;;;9.50;5.03;;;-4.00;99.90;;;;;;4852047;29;20057;-76
2024/01/10 03:16:33;;;;;;;9.23;5.20;;;-4.00;99.90;;;;;;4892151;29;20093;-76
2024/01/10 03:18:58;;;;;;;11.05;5.07;;;-4.00;99.90;;;;;;4860299;29;20053;-76
2024/01/10 03:21:26;;;;;;;8.73;5.05;;;-4.10;99.90;;;;;;4856117;29;20073;-76
2024/01/10 03:23:58;;;;;;;11.98;6.03;;;-4.10;99.90;;;;;;4841663;29;20060;-76
2024/01/10 03:26:24;;;;;;;10.98;5.13;;;-4.10;99.90;;;;;;4848195;29;20034;-76
2024/01/10 03:28:50;;;;;;;10.60;5.88;;;-4.10;99.90;;;;;;4850843;29;20057;-76
2024/01/10 03:31:16;;;;;;;11.23;5.40;;;-4.00;99.90;;;;;;4855959;29;20069;-76
2024/01/10 03:33:42;;;;;;;9.50;5.03;;;-4.00;99.90;;;;;;4862179;29;20440;-76
2024/01/10 03:36:12;;;;;;;10.00;5.72;;;-4.10;99.90;;;;;;4861529;29;20064;-76
2024/01/10 03:38:37;;;;;;;11.18;5.47;;;-4.10;99.90;;;;;;4849274;29;20049;-76
2024/01/10 03:41:03;;;;;;;9.65;5.57;;;-4.10;99.90;;;;;;4853990;29;20049;-76
2024/01/10 03:43:29;;;;;;;12.05;6.15;;;-4.10;99.90;;;;;;4872687;29;20046;-76
2024/01/10 03:45:54;;;;;;;14.85;5.60;;;-4.10;99.90;;;;;;4869479;29;20056;-76
2024/01/10 03:48:20;;;;;;;12.60;5.72;;;-4.10;99.90;;;;;;4861899;29;20044;-76
2024/01/10 03:50:46;;;;;;;11.05;5.80;;;-4.10;99.90;;;;;;4898906;29;20044;-77
2024/01/10 03:53:11;;;;;;;11.32;6.07;;;-4.10;99.90;;;;;;4858506;29;20059;-76
2024/01/10 03:55:38;;;;;;;10.95;6.07;;;-4.10;99.90;;;;;;4897817;29;20049;-76
2024/01/10 03:58:04;;;;;;;10.50;6.03;;;-4.10;99.90;;;;;;4869505;29;20045;-76
2024/01/10 04:00:30;;;;;;;11.25;5.65;;;-4.10;99.90;;;;;;4897383;29;20052;-76
2024/01/10 04:02:56;;;;;;;12.57;6.35;;;-4.20;99.90;;;;;;4855108;29;20141;-76
2024/01/10 04:05:22;;;;;;;11.70;6.03;;;-4.20;99.90;;;;;;4868023;29;20059;-77
2024/01/10 04:07:48;;;;;;;10.70;5.97;;;-4.20;99.90;;;;;;4872482;29;20098;-76
2024/01/10 04:10:14;;;;;;;10.32;6.07;;;-4.20;99.90;;;;;;4877332;29;21238;-76
2024/01/10 04:12:40;;;;;;;12.77;6.75;;;-4.20;99.90;;;;;;4882089;29;20521;-76
2024/01/10 04:15:06;;;;;;;12.93;6.82;;;-4.10;99.90;;;;;;4870952;29;20052;-76
2024/01/10 04:17:32;;;;;;;12.75;7.13;;;-4.10;99.90;;;;;;4894500;29;20553;-76
2024/01/10 04:19:58;;;;;;;10.70;6.15;;;-4.10;99.90;;;;;;4865259;29;20135;-76
2024/01/10 04:22:25;;;;;;;11.80;6.82;;;-4.10;99.90;;;;;;4860488;29;20064;-77
2024/01/10 04:24:51;;;;;;;14.70;7.40;;;-4.10;99.90;;;;;;4859586;29;20100;-76
2024/01/10 04:27:18;;;;;;;13.10;7.22;;;-4.10;99.90;;;;;;4895060;29;20313;-76
2024/01/10 04:29:46;;;;;;;11.75;6.93;;;-4.10;99.90;;;;;;4851790;29;20053;-77
2024/01/10 04:32:12;;;;;;;12.27;6.65;;;-4.10;99.90;;;;;;4870433;29;20182;-76
2024/01/10 04:34:37;;;;;;;9.35;6.00;;;-4.10;99.90;;;;;;4881508;29;20092;-76
2024/01/10 04:37:03;;;;;;;14.63;6.82;;;-4.10;99.90;;;;;;4858648;29;20200;-76
2024/01/10 04:39:29;;;;;;;12.82;7.13;;;-4.10;99.90;;;;;;4862734;29;20177;-76
2024/01/10 04:41:55;;;;;;;13.38;7.30;;;-4.10;99.90;;;;;;4848996;29;20110;-76
2024/01/10 04:44:20;;;;;;;12.55;6.78;;;-4.10;99.90;;;;;;4886635;29;20049;-77
2024/01/10 04:46:46;;;;;;;14.05;7.47;;;-4.00;99.90;;;;;;4882887;29;20042;-76
2024/01/10 04:49:12;;;;;;;14.05;6.72;;;-4.10;99.90;;;;;;4856658;29;20075;-76
2024/01/10 04:51:38;;;;;;;15.90;7.53;;;-4.10;99.90;;;;;;4847572;29;20041;-76
2024/01/10 04:54:03;;;;;;;13.82;7.32;;;-4.10;99.90;;;;;;4844513;29;20494;-76
2024/01/10 04:56:29;;;;;;;16.33;7.38;;;-4.10;99.90;;;;;;4867524;29;20037;-77
2024/01/10 04:58:55;;;;;;;15.57;6.95;;;-4.10;99.90;;;;;;4847923;29;20054;-77
2024/01/10 05:01:21;;;;;;;13.80;7.25;;;-4.10;99.90;;;;;;4840446;29;20136;-77
2024/01/10 05:03:46;;;;;;;13.32;7.35;;;-4.10;99.90;;;;;;4855983;29;20122;-77
2024/01/10 05:06:12;;;;;;;11.98;7.10;;;-4.10;99.90;;;;;;4856944;29;20729;-77
2024/01/10 05:08:37;;;;;;;14.18;7.40;;;-4.10;99.90;;;;;;4855994;29;20049;-76
2024/01/10 05:11:03;;;;;;;13.90;7.70;;;-4.10;99.90;;;;;;4860892;29;20056;-77
2024/01/10 05:13:29;;;;;;;15.32;8.23;;;-4.10;99.90;;;;;;4869929;29;20041;-76
2024/01/10 05:15:55;;;;;;;15.07;7.25;;;-4.10;99.90;;;;;;4877800;29;20061;-77
2024/01/10 05:18:21;;;;;;;13.82;7.43;;;-4.00;99.90;;;;;;4882259;29;20088;-76
2024/01/10 05:20:47;;;;;;;13.95;7.75;;;-4.00;99.90;;;;;;4845156;29;20455;-76
2024/01/10 05:23:13;;;;;;;16.30;7.40;;;-4.10;99.90;;;;;;4860336;29;20525;-76
2024/01/10 05:25:38;;;;;;;14.30;8.02;;;-4.10;99.90;;;;;;4859672;29;20185;-76
2024/01/10 05:28:05;;;;;;;13.23;7.60;;;-4.10;99.90;;;;;;4850429;29;20073;-77
2024/01/10 05:30:31;;;;;;;15.27;8.02;;;-4.10;99.90;;;;;;4876705;29;20383;-76
2024/01/10 05:32:58;;;;;;;14.68;8.15;;;-4.10;99.90;;;;;;4839920;29;20052;-76
2024/01/10 05:35:25;;;;;;;11.43;7.13;;;-4.20;99.90;;;;;;4852428;29;20081;-77
2024/01/10 05:37:51;;;;;;;16.83;8.45;;;-4.20;99.90;;;;;;4883864;29;20709;-76
2024/01/10 05:40:18;;;;;;;14.80;7.90;;;-4.20;99.90;;;;;;4847792;29;20079;-77
2024/01/10 05:42:44;;;;;;;13.13;6.90;;;-4.20;99.90;;;;;;4847331;29;20049;-77
2024/01/10 05:45:10;;;;;;;14.35;7.60;;;-4.20;99.90;;;;;;4891903;29;20353;-76
2024/01/10 05:47:36;;;;;;;16.27;7.68;;;-4.20;99.90;;;;;;4900464;29;20102;-76
2024/01/10 05:50:02;;;;;;;18.67;7.53;;;-4.20;99.90;;;;;;4863119;29;20053;-76
2024/01/10 05:52:27;;;;;;;13.40;7.55;;;-4.20;99.90;;;;;;4874938;29;20175;-77
2024/01/10 05:54:53;;;;;;;13.60;6.78;;;-4.20;99.90;;;;;;4849045;29;21598;-77
2024/01/10 05:57:19;;;;;;;14.52;7.68;;;-4.20;99.90;;;;;;4863700;29;20073;-76
2024/01/10 05:59:44;;;;;;;13.95;7.18;;;-4.20;99.90;;;;;;4862335;29;20465;-76
2024/01/10 06:02:10;;;;;;;15.07;8.13;;;-4.20;99.90;;;;;;4857865;29;20053;-76
2024/01/10 06:04:36;;;;;;;14.38;8.00;;;-4.20;99.90;;;;;;4869525;29;20052;-77
2024/01/10 06:07:01;;;;;;;19.20;8.00;;;-4.10;99.90;;;;;;4860003;29;20041;-77
2024/01/10 06:09:27;;;;;;;16.92;7.72;;;-4.20;99.90;;;;;;4855441;29;20135;-77
2024/01/10 06:11:53;;;;;;;17.58;8.82;;;-4.20;99.90;;;;;;4876308;29;20471;-77
2024/01/10 06:14:18;;;;;;;14.98;7.88;;;-4.20;99.90;;;;;;4843368;29;20050;-77
2024/01/10 06:16:45;;;;;;;15.90;8.90;;;-4.10;99.90;;;;;;4891309;29;20065;-76
2024/01/10 06:19:11;;;;;;;16.35;8.90;;;-4.10;99.90;;;;;;4862856;29;20073;-76
2024/01/10 06:21:37;;;;;;;19.95;8.77;;;-4.20;99.90;;;;;;4879009;29;20052;-76
2024/01/10 06:24:04;;;;;;;16.10;8.35;;;-4.20;99.90;;;;;;4852962;29;20065;-77
2024/01/10 06:26:29;;;;;;;17.35;7.88;;;-4.20;99.90;;;;;;4841117;29;20487;-77
2024/01/10 06:28:55;;;;;;;16.88;8.75;;;-4.20;99.90;;;;;;4853602;29;20140;-77
2024/01/10 06:31:20;;;;;;;15.77;8.77;;;-4.20;99.90;;;;;;4849738;29;20577;-77
2024/01/10 06:33:46;;;;;;;17.90;9.30;;;-4.20;99.90;;;;;;4847467;29;20447;-76
2024/01/10 06:36:12;;;;;;;17.42;9.80;;;-4.20;99.90;;;;;;4862438;29;20057;-76
2024/01/10 06:38:41;;;;;;;16.83;9.80;;;-4.20;99.90;;;;;;4896264;29;20461;-76
2024/01/10 06:41:10;;;;;;;18.50;9.68;;;-4.20;99.90;;;;;;4853214;29;20128;-76
2024/01/10 06:43:36;;;;;;;17.60;9.25;;;-4.20;99.90;;;;;;4870319;29;20127;-76
2024/01/10 06:46:03;;;;;;;20.25;9.82;;;-4.20;99.90;;;;;;4851009;29;20049;-76
2024/01/10 06:48:29;;;;;;;19.33;10.05;;;-4.20;99.90;;;;;;4854980;29;20128;-76
2024/01/10 06:50:55;;;;;;;17.05;9.38;;;-4.20;99.90;;;;;;4843486;29;20050;-76
2024/01/10 06:53:21;;;;;;;19.67;10.23;;;-4.30;99.90;;;;;;4864388;29;20053;-77
2024/01/10 06:55:47;;;;;;;20.48;10.73;;;-4.30;99.90;;;;;;4864782;29;20053;-76
2024/01/10 06:58:12;;;;;;;22.02;10.10;;;-4.20;99.90;;;;;;4864564;29;20379;-76
2024/01/10 07:00:38;;;;;;;19.50;10.18;;;-4.20;99.90;;;;;;4852759;29;20675;-76
2024/01/10 07:03:04;;;;;;;18.63;10.70;;;-4.30;99.90;;;;;;4851114;29;20079;-76
2024/01/10 07:05:31;;;;;;;17.63;9.25;;;-4.30;99.90;;;;;;4868269;29;20120;-76
2024/01/10 07:08:02;;;;;;;17.85;9.77;;;-4.30;99.90;;;;;;4843685;29;20072;-77
2024/01/10 07:10:29;;;;;;;18.83;9.50;;;-4.30;99.90;;;;;;4882712;29;20050;-76
2024/01/10 07:12:55;;;;;;;18.83;9.75;;;-4.30;99.90;;;;;;4838506;29;20132;-76
2024/01/10 07:15:21;;;;;;;17.77;9.57;;;-4.30;99.90;;;;;;4869553;29;20483;-75
2024/01/10 07:17:47;;;;;;;18.70;9.55;;;-4.30;99.90;;;;;;4843704;29;20078;-76
2024/01/10 07:20:13;;;;;;;19.75;10.68;;;-4.30;99.90;;;;;;4857670;29;20048;-76
2024/01/10 07:22:41;;;;;;;17.58;9.57;;;-4.30;99.90;;;;;;4846607;29;20057;-76
2024/01/10 07:25:09;;;;;;;20.85;9.60;;;-4.30;99.90;;;;;;4846875;29;20074;-75
2024/01/10 07:27:37;;;;;;;17.30;8.07;;;-4.30;99.90;;;;;;4847695;29;20104;-75
2024/01/10 07:30:13;;;;;;;17.73;8.95;;;-4.30;99.90;;;;;;4853859;29;20131;-76
2024/01/10 07:32:46;;;;;;;19.42;9.48;;;-4.30;99.90;;;;;;4860752;29;20128;-76
2024/01/10 07:35:15;;;;;;;18.60;9.40;;;-4.30;99.90;;;;;;4877641;29;20133;-76
2024/01/10 07:37:44;;;;;;;19.23;9.70;;;-4.30;99.90;;;;;;4851535;29;20053;-75
2024/01/10 07:40:13;;;;;;;16.55;9.15;;;-4.30;99.90;;;;;;4854267;29;20041;-76
2024/01/10 07:42:39;;;;;;;18.75;10.05;;;-4.30;99.90;;;;;;4862881;29;20053;-76
2024/01/10 07:45:05;;;;;;;19.63;10.52;;;-4.30;99.90;;;;;;4856430;29;20451;-76
2024/01/10 07:47:34;;;;;;;18.35;10.45;;;-4.30;99.90;;;;;;4855723;29;20784;-77
2024/01/10 07:49:59;;;;;;;18.33;9.82;;;-4.30;99.90;;;;;;4846911;29;20707;-76
2024/01/10 07:52:25;;;;;;;20.00;10.65;;;-4.30;99.90;;;;;;4853770;29;20049;-76
2024/01/10 07:54:51;;;;;;;19.33;10.52;;;-4.30;99.90;;;;;;4851259;29;20050;-75
2024/01/10 07:57:18;;;;;;;19.15;11.18;;;-4.30;99.90;;;;;;4857099;29;20054;-75
2024/01/10 07:59:45;;;;;;;17.80;9.65;;;-4.30;99.90;;;;;;4866223;29;20065;-75
2024/01/10 08:02:11;;;;;;;20.23;11.23;;;-4.30;99.90;;;;;;4854129;29;20077;-76
2024/01/10 08:04:37;;;;;;;20.53;9.87;;;-4.30;99.90;;;;;;4855618;29;20053;-76
2024/01/10 08:07:03;;;;;;;18.50;10.30;;;-4.30;99.90;;;;;;4845832;29;20321;-75
2024/01/10 08:09:29;;;;;;;21.17;10.57;;;-4.30;99.90;;;;;;4875730;29;20121;-76
2024/01/10 08:11:55;;;;;;;24.85;11.73;;;-4.30;99.90;;;;;;4879732;29;20076;-76
2024/01/10 08:14:20;;;;;;;17.27;10.13;;;-4.30;99.90;;;;;;4852195;29;20046;-77
2024/01/10 08:16:46;;;;;;;16.58;8.82;;;-4.30;99.90;;;;;;4868924;29;20053;-75
2024/01/10 08:19:12;;;;;;;15.88;8.23;;;-4.30;99.90;;;;;;4861959;29;20045;-76
2024/01/10 08:21:37;;;;;;;17.10;9.98;;;-4.30;99.90;;;;;;4859817;29;20109;-75
2024/01/10 08:24:04;;;;;;;17.40;9.00;;;-4.30;99.90;;;;;;4855314;29;20050;-75
2024/01/10 08:26:30;;;;;;;15.57;8.80;;;-4.20;99.90;;;;;;4854973;29;20067;-75
2024/01/10 08:28:56;;;;;;;18.13;8.80;;;-4.20;99.90;;;;;;4841259;29;20084;-76
2024/01/10 08:31:22;;;;;;;16.67;8.90;;;-4.20;99.90;;;;;;4864944;29;20048;-74
2024/01/10 08:33:48;;;;;;;15.10;8.45;;;-4.20;99.90;;;;;;4885694;29;20097;-74
2024/01/10 08:36:14;;;;;;;12.68;7.75;;;-4.10;99.90;;;;;;4855016;29;20454;-78
2024/01/10 08:38:41;;;;;;;14.20;7.68;;;-4.10;99.90;;;;;;4855027;29;20046;-76
2024/01/10 08:41:11;;;;;;;12.13;6.82;;;-4.10;99.90;;;;;;4857194;29;20045;-75
2024/01/10 08:43:38;;;;;;;13.95;7.55;;;-4.10;99.90;;;;;;4850632;29;20445;-74
2024/01/10 08:46:04;;;;;;;16.23;8.03;;;-4.00;99.90;;;;;;4849462;29;20056;-75
2024/01/10 08:48:29;;;;;;;17.50;8.80;;;-4.00;99.90;;;;;;4850142;29;20083;-75
2024/01/10 08:50:56;;;;;;;12.30;8.05;;;-4.00;99.90;;;;;;4843590;29;20507;-75
2024/01/10 08:53:22;;;;;;;11.88;7.57;;;-4.00;99.90;;;;;;4847051;29;20090;-74
2024/01/10 08:55:48;;;;;;;14.57;8.50;;;-3.90;99.90;;;;;;4840091;29;20573;-76
2024/01/10 08:58:14;;;;;;;11.18;6.88;;;-3.90;99.90;;;;;;4839111;29;20038;-74
2024/01/10 09:00:42;;;;;;;15.30;7.70;;;-3.90;99.90;;;;;;4843471;29;20057;-76
2024/01/10 09:03:08;;;;;;;12.32;7.05;;;-3.80;99.90;;;;;;4849690;29;20073;-75
2024/01/10 09:05:34;;;;;;;15.38;8.38;;;-3.80;99.90;;;;;;4850258;29;20045;-74
2024/01/10 09:08:00;;;;;;;13.65;7.25;;;-3.70;99.90;;;;;;4839737;29;20749;-76
2024/01/10 09:10:28;;;;;;;13.57;7.85;;;-3.60;99.90;;;;;;4844642;29;20044;-74
2024/01/10 09:12:54;;;;;;;14.45;7.20;;;-3.70;99.90;;;;;;4840328;29;20050;-74
2024/01/10 09:15:20;;;;;;;13.65;6.57;;;-3.60;99.90;;;;;;4841105;29;20038;-74
2024/01/10 09:17:45;;;;;;;14.18;7.28;;;-3.60;99.90;;;;;;4843739;29;20136;-72
2024/01/10 09:20:12;;;;;;;13.05;7.38;;;-3.50;99.90;;;;;;4839365;29;20098;-73
2024/01/10 09:22:39;;;;;;;14.87;7.17;;;-3.50;99.90;;;;;;4852133;29;20081;-72
2024/01/10 09:25:08;;;;;;;14.20;7.40;;;-3.40;99.90;;;;;;4847807;29;20303;-75
2024/01/10 09:27:35;;;;;;;13.40;7.60;;;-3.40;99.90;;;;;;4840278;29;20129;-75
2024/01/10 09:30:08;;;;;;;13.53;7.13;;;-3.30;99.90;;;;;;4839490;29;20053;-75
2024/01/10 09:32:34;;;;;;;12.52;6.82;;;-3.30;99.90;;;;;;4837118;29;20329;-75
2024/01/10 09:35:00;;;;;;;10.90;6.07;;;-3.30;99.90;;;;;;4840195;29;20038;-74
2024/01/10 09:37:26;;;;;;;12.20;6.53;;;-3.20;99.90;;;;;;4876112;29;20060;-73
2024/01/10 09:39:52;;;;;;;11.43;6.57;;;-3.20;99.90;;;;;;4847095;29;20505;-72
2024/01/10 09:42:20;;;;;;;12.95;6.90;;;-3.20;99.90;;;;;;4851716;29;20093;-74
2024/01/10 09:44:47;;;;;;;10.18;6.35;;;-3.10;99.90;;;;;;4840391;29;20049;-73
2024/01/10 09:47:15;;;;;;;15.13;7.43;;;-3.10;99.90;;;;;;4845681;29;20099;-73
2024/01/10 09:49:40;;;;;;;12.07;6.78;;;-3.10;99.90;;;;;;4871033;29;20056;-74
2024/01/10 09:52:10;;;;;;;12.27;6.88;;;-3.00;99.90;;;;;;4857774;29;20053;-74
2024/01/10 09:54:40;;;;;;;14.52;7.00;;;-3.00;99.90;;;;;;4874626;29;20079;-73
2024/01/10 09:57:06;;;;;;;17.33;8.32;;;-2.90;99.90;;;;;;4859008;29;20053;-77
2024/01/10 09:59:31;;;;;;;16.63;8.10;;;-2.90;99.90;;;;;;4856844;29;20132;-75
2024/01/10 10:02:00;;;;;;;15.23;7.43;;;-2.90;99.90;;;;;;4848348;29;20057;-74
2024/01/10 10:04:27;;;;;;;11.50;7.38;;;-2.80;99.90;;;;;;4870107;29;20037;-75
2024/01/10 10:07:01;;;;;;;;;;;-2.80;99.90;;;;;;4852008;29;20057;-75
2024/01/10 10:09:28;;;;;;;11.82;6.72;;;-2.70;99.90;;;;;;4849665;29;19920;-82
2024/01/10 10:11:54;;;;;;;14.18;7.43;;;-2.70;99.90;;;;;;4849749;29;20065;-76
2024/01/10 10:14:20;;;;;;;10.30;6.33;;;-2.50;99.90;;;;;;4879490;29;20073;-76
2024/01/10 10:16:46;;;;;;;13.20;7.05;;;-2.50;99.90;;;;;;4877852;29;20061;-76
2024/01/10 10:19:13;;;;;;;12.18;6.30;;;-2.50;99.90;;;;;;4863376;29;20132;-74
2024/01/10 10:21:39;;;;;;;15.15;7.13;;;-2.50;99.90;;;;;;4845464;29;20100;-75
2024/01/10 10:24:05;;;;;;;12.73;6.60;;;-2.50;99.90;;;;;;4886690;29;20053;-76
2024/01/10 10:26:35;;;;;;;10.30;5.72;;;-2.40;99.90;;;;;;4844375;29;20562;-75
2024/01/10 10:29:01;;;;;;;14.73;7.47;;;-2.30;99.90;;;;;;4860719;29;20668;-74
2024/01/10 10:31:27;;;;;;;12.75;6.32;;;-2.30;99.90;;;;;;4857430;29;20140;-75
2024/01/10 10:33:52;;;;;;;12.20;6.78;;;-2.30;99.90;;;;;;4848939;29;20088;-73
2024/01/10 10:36:21;;;;;;;11.75;6.15;;;-2.20;99.90;;;;;;4857987;29;20053;-74
2024/01/10 10:38:48;;;;;;;13.25;6.72;;;-2.20;99.90;;;;;;4852286;29;20045;-76
2024/01/10 10:41:14;;;;;;;11.88;6.65;;;-2.10;99.90;;;;;;4847357;29;20073;-75
2024/01/10 10:43:40;;;;;;;13.32;6.85;;;-2.10;99.90;;;;;;4864478;29;20041;-76
2024/01/10 10:46:12;;;;;;;12.95;7.25;;;-2.00;99.90;;;;;;4865903;29;20057;-74
2024/01/10 10:48:38;;;;;;;12.27;6.30;;;-1.90;99.90;;;;;;4845103;29;20060;-74
2024/01/10 10:51:09;;;;;;;13.82;6.93;;;-1.90;99.90;;;;;;4841831;29;20517;-77
2024/01/10 10:53:36;;;;;;;12.05;7.00;;;-1.80;99.90;;;;;;4873403;29;20097;-75
2024/01/10 10:56:07;;;;;;;14.15;6.18;;;-1.80;99.90;;;;;;4843306;29;20077;-72
2024/01/10 10:58:46;;;;;;;10.52;5.30;;;-1.70;99.90;;;;;;4843704;29;20176;-72
2024/01/10 11:01:14;;;;;;;13.70;6.43;;;-1.70;99.90;;;;;;4862255;29;20052;-78
2024/01/10 11:03:41;;;;;;;11.15;6.03;;;-1.60;99.90;;;;;;4846669;29;20045;-82
2024/01/10 11:06:07;;;;;;;10.10;5.68;;;-1.60;99.90;;;;;;4859064;29;20430;-83
2024/01/10 11:08:45;;;;;;;11.00;6.43;;;-1.50;99.90;;;;;;4851584;29;20052;-81
2024/01/10 11:11:39;;;;;;;12.50;6.20;;;-1.50;99.90;;;;;;4878734;29;20160;-81
2024/01/10 11:14:29;;;;;;;12.05;6.15;;;-1.40;99.90;;;;;;4831445;29;20084;-76
2024/01/10 11:17:04;;;;;;;10.90;5.65;;;-1.30;99.90;;;;;;4853836;29;20052;-80
2024/01/10 11:19:49;;;;;;;10.30;5.22;;;-1.30;99.90;;;;;;4855280;29;20108;-80
2024/01/10 11:22:49;;;;;;;7.80;4.38;;;-1.20;99.90;;;;;;4854090;29;20327;-80
2024/01/10 11:25:15;;;;;;;9.63;4.63;;;-1.10;99.90;;;;;;4872026;29;20149;-80
2024/01/10 11:27:42;;;;;;;8.43;4.45;;;-1.10;99.90;;;;;;4853996;29;20414;-79
2024/01/10 11:30:10;;;;;;;11.80;5.05;;;-1.00;99.90;;;;;;4873794;29;20040;-79
2024/01/10 11:32:36;;;;;;;;;;;-0.90;99.90;;;;;;4850413;29;21028;-76
2024/01/10 11:35:18;;;;;;;10.23;5.40;;;-0.90;99.90;;;;;;4873915;29;19939;-75
2024/01/10 11:37:46;;;;;;;11.88;6.78;;;-0.90;99.90;;;;;;4863033;29;20116;-72
2024/01/10 11:40:12;;;;;;;12.57;5.63;;;-0.90;99.90;;;;;;4870155;29;20084;-74
2024/01/10 11:42:45;;;;;;;9.85;4.68;;;-0.80;99.90;;;;;;4883182;29;20040;-73
2024/01/10 11:45:30;;;;;;;10.35;4.82;;;-0.70;99.90;;;;;;4857611;29;20089;-74
2024/01/10 11:47:59;;;;;;;10.75;4.55;;;-0.70;99.90;;;;;;4865820;29;20157;-71
2024/01/10 11:50:26;;;;;;;7.63;4.10;;;-0.60;99.90;;;;;;4866277;29;20561;-72
2024/01/10 11:52:55;;;;;;;7.97;4.47;;;-0.60;99.90;;;;;;4869044;29;20049;-73
2024/01/10 11:55:54;;;;;;;10.30;4.53;;;-0.50;99.90;;;;;;4849115;29;20052;-75
2024/01/10 11:58:23;;;;;;;7.53;4.25;;;-0.40;99.90;;;;;;4846799;29;20569;-80
2024/01/10 12:00:49;;;;;;;7.65;4.07;;;-0.40;99.90;;;;;;4857170;29;20056;-78
2024/01/10 12:03:14;;;;;;;7.88;4.40;;;-0.30;99.90;;;;;;4852050;29;21070;-79
2024/01/10 12:05:41;;;;;;;5.60;3.53;;;-0.30;99.90;;;;;;4840632;29;20061;-76
2024/01/10 12:08:10;;;;;;;10.50;4.78;;;-0.30;99.90;;;;;;4875791;29;20116;-76
2024/01/10 12:10:37;;;;;;;6.93;3.70;;;-0.20;99.90;;;;;;4853884;29;20049;-76
2024/01/10 12:13:06;;;;;;;8.05;3.97;;;-0.20;99.90;;;;;;4846200;29;20140;-77
2024/01/10 12:15:31;;;;;;;7.57;3.90;;;-0.20;99.90;;;;;;4853079;29;20045;-79
2024/01/10 12:17:57;;;;;;;8.60;3.67;;;-0.10;99.90;;;;;;4873414;29;20052;-79
2024/01/10 12:20:23;;;;;;;8.75;4.15;;;0.00;99.90;;;;;;4853118;29;20041;-80
2024/01/10 12:22:48;;;;;;;9.77;4.45;;;0.00;99.90;;;;;;4851657;29;20044;-78
2024/01/10 12:25:14;;;;;;;7.90;4.20;;;0.00;99.90;;;;;;4852717;29;20045;-77
2024/01/10 12:27:40;;;;;;;8.23;4.47;;;0.00;99.90;;;;;;4854341;29;20076;-78
2024/01/10 12:30:07;;;;;;;6.70;3.85;;;0.10;99.90;;;;;;4865880;29;20052;-77
2024/01/10 12:32:33;;;;;;;7.43;4.22;;;0.10;99.90;;;;;;4847955;29;20557;-78
2024/01/10 12:35:04;;;;;;;7.60;3.75;;;0.10;99.90;;;;;;4857038;29;20055;-77
2024/01/10 12:37:30;;;;;;;8.05;3.55;;;0.10;99.90;;;;;;4859712;29;20056;-81
2024/01/10 12:39:56;;;;;;;7.95;4.43;;;0.20;99.90;;;;;;4860496;29;20049;-77